Time;durP1;ratioP1;P1;durP2;ratioP2;P2;SDS_P1;SDS_P2;PMS_P1;PMS_P2;Temp;Humidity;BMP_temperature;BMP_pressure;BME280_temperature;BME280_humidity;BME280_pressure;Samples;Min_cycle;Max_cycle;Signal;HPM_P1;HPM_P2
2021/01/08 00:03:17;;;;;;;;;;;2.10;99.90;;;;;;4825026;29;19915;-83
2021/01/08 00:05:46;;;;;;;;;;;2.10;99.90;;;;;;4828218;29;19925;-82
2021/01/08 00:08:15;;;;;;;;;;;2.10;99.90;;;;;;4828684;29;19916;-83
2021/01/08 00:10:48;;;;;;;;;;;2.10;99.90;;;;;;4813353;29;19921;-82
2021/01/08 00:13:16;;;;;;;;;;;2.10;99.90;;;;;;4822569;29;19912;-84
2021/01/08 00:15:44;;;;;;;;;;;2.10;99.90;;;;;;4850711;29;19925;-83
2021/01/08 00:18:13;;;;;;;;;;;2.10;99.90;;;;;;4865292;29;19926;-81
2021/01/08 00:20:42;;;;;;;;;;;2.10;99.90;;;;;;4847455;29;19924;-82
2021/01/08 00:23:13;;;;;;;;;;;2.10;99.90;;;;;;4834660;29;19908;-82
2021/01/08 00:25:42;;;;;;;;;;;2.20;99.90;;;;;;4881675;29;19925;-82
2021/01/08 00:28:13;;;;;;;;;;;2.10;99.90;;;;;;4835573;29;19935;-82
2021/01/08 00:30:41;;;;;;;;;;;2.10;99.90;;;;;;4880712;29;19924;-82
2021/01/08 00:33:27;;;;;;;;;;;2.10;99.90;;;;;;4837897;29;19932;-82
2021/01/08 00:35:54;;;;;;;;;;;2.10;99.90;;;;;;4848038;29;19924;-82
2021/01/08 00:38:23;;;;;;;;;;;2.10;99.90;;;;;;4849534;29;19928;-81
2021/01/08 00:40:55;;;;;;;;;;;2.10;99.90;;;;;;4848457;29;19908;-84
2021/01/08 00:43:25;;;;;;;;;;;2.10;99.90;;;;;;4865308;29;20002;-82
2021/01/08 00:45:54;;;;;;;;;;;2.10;99.90;;;;;;4849129;29;19935;-82
2021/01/08 00:48:25;;;;;;;;;;;2.10;99.90;;;;;;4863647;29;19935;-84
2021/01/08 00:51:02;;;;;;;;;;;2.10;99.90;;;;;;4861031;29;19925;-83
2021/01/08 00:53:35;;;;;;;;;;;2.10;99.90;;;;;;4831238;29;20299;-82
2021/01/08 00:56:05;;;;;;;;;;;2.10;99.90;;;;;;4860521;29;19929;-83
2021/01/08 00:58:33;;;;;;;;;;;2.00;99.90;;;;;;4848577;29;19924;-83
2021/01/08 01:01:01;;;;;;;;;;;2.00;99.90;;;;;;4848876;29;19934;-82
2021/01/08 01:03:41;;;;;;;;;;;2.10;99.90;;;;;;4848992;29;19934;-82
2021/01/08 01:06:18;;;;;;;;;;;2.10;99.90;;;;;;4864049;29;19935;-83
2021/01/08 01:08:53;;;;;;;;;;;2.00;99.90;;;;;;4864516;29;19931;-83
2021/01/08 01:11:22;;;;;;;;;;;2.00;99.90;;;;;;4865098;29;19924;-85
2021/01/08 01:13:51;;;;;;;;;;;2.00;99.90;;;;;;4861599;29;19924;-83
2021/01/08 01:19:48;;;;;;;;;;;1.90;99.90;;;;;;4842300;29;19920;-81
2021/01/08 01:22:16;;;;;;;;;;;2.00;99.90;;;;;;4861318;29;19924;-84
2021/01/08 01:24:50;;;;;;;;;;;2.00;99.90;;;;;;4847062;29;19924;-82
2021/01/08 01:27:45;;;;;;;;;;;2.00;99.90;;;;;;4862669;29;19924;-84
2021/01/08 01:33:59;;;;;;;;;;;2.00;99.90;;;;;;4778227;29;19938;-82
2021/01/08 01:36:30;;;;;;;;;;;2.00;99.90;;;;;;4844454;29;19915;-82
2021/01/08 01:39:18;;;;;;;;;;;2.00;99.90;;;;;;4864011;29;19924;-82
2021/01/08 01:41:46;;;;;;;;;;;2.00;99.90;;;;;;4862401;29;20002;-83
2021/01/08 01:44:14;;;;;;;;;;;1.90;99.90;;;;;;4847029;29;19928;-82
2021/01/08 01:46:41;;;;;;;;;;;1.90;99.90;;;;;;4848729;29;19935;-83
2021/01/08 01:49:10;;;;;;;;;;;1.90;99.90;;;;;;4848489;29;19925;-81
2021/01/08 01:51:38;;;;;;;;;;;2.00;99.90;;;;;;4864000;29;19925;-81
2021/01/08 01:54:07;;;;;;;;;;;2.00;99.90;;;;;;4847730;29;19994;-83
2021/01/08 01:56:35;;;;;;;;;;;2.00;99.90;;;;;;4863816;29;19925;-82
2021/01/08 01:59:04;;;;;;;;;;;2.00;99.90;;;;;;4862525;29;19930;-82
2021/01/08 02:01:32;;;;;;;;;;;2.00;99.90;;;;;;4846300;29;19924;-83
2021/01/08 02:04:00;;;;;;;;;;;2.00;99.90;;;;;;4877363;29;19924;-82
2021/01/08 02:06:31;;;;;;;;;;;2.00;99.90;;;;;;4844863;29;19924;-80
2021/01/08 02:09:01;;;;;;;;;;;2.00;99.90;;;;;;4857384;29;19925;-81
2021/01/08 02:11:31;;;;;;;;;;;2.00;99.90;;;;;;4847835;29;20289;-82
2021/01/08 02:14:01;;;;;;;;;;;2.00;99.90;;;;;;4845976;29;19909;-82
2021/01/08 02:16:31;;;;;;;;;;;2.10;99.90;;;;;;4863030;29;19925;-82
2021/01/08 02:19:00;;;;;;;;;;;2.10;99.90;;;;;;4861484;29;19924;-82
2021/01/08 02:21:32;;;;;;;;;;;2.00;99.90;;;;;;4849068;29;19925;-83
2021/01/08 02:24:06;;;;;;;;;;;2.00;99.90;;;;;;4865098;29;19924;-82
2021/01/08 02:26:35;;;;;;;;;;;2.00;99.90;;;;;;4832672;29;19924;-82
2021/01/08 02:29:03;;;;;;;;;;;2.00;99.90;;;;;;4844837;29;19928;-82
2021/01/08 02:31:35;;;;;;;;;;;2.00;99.90;;;;;;4832453;29;19925;-81
2021/01/08 02:34:03;;;;;;;;;;;2.00;99.90;;;;;;4861922;29;19939;-81
2021/01/08 02:36:32;;;;;;;;;;;1.90;99.90;;;;;;4847706;29;19924;-82
2021/01/08 02:39:00;;;;;;;;;;;1.90;99.90;;;;;;4848276;29;19925;-82
2021/01/08 02:41:28;;;;;;;;;;;1.90;99.90;;;;;;4847883;29;19931;-82
2021/01/08 02:43:58;;;;;;;;;;;1.80;99.90;;;;;;4834662;29;19928;-83
2021/01/08 02:46:25;;;;;;;;;;;1.80;99.90;;;;;;4849695;29;19925;-81
2021/01/08 02:48:52;;;;;;;;;;;1.80;99.90;;;;;;4832654;29;19925;-81
2021/01/08 02:51:20;;;;;;;;;;;1.80;99.90;;;;;;4849113;29;19925;-81
2021/01/08 02:53:49;;;;;;;;;;;1.80;99.90;;;;;;4829356;29;19925;-82
2021/01/08 02:56:24;;;;;;;;;;;1.80;99.90;;;;;;4845909;29;19915;-82
2021/01/08 02:58:52;;;;;;;;;;;1.80;99.90;;;;;;4847691;29;19916;-82
2021/01/08 03:01:22;;;;;;;;;;;1.80;99.90;;;;;;4830913;29;19925;-81
2021/01/08 03:03:51;;;;;;;;;;;1.80;99.90;;;;;;4831519;29;19935;-83
2021/01/08 03:06:18;;;;;;;;;;;1.80;99.90;;;;;;4830294;29;19935;-81
2021/01/08 03:08:48;;;;;;;;;;;1.80;99.90;;;;;;4844936;29;19935;-83
2021/01/08 03:11:15;;;;;;;;;;;1.80;99.90;;;;;;4844490;29;19929;-83
2021/01/08 03:13:45;;;;;;;;;;;1.90;99.90;;;;;;4859950;29;19925;-83
2021/01/08 03:16:13;;;;;;;;;;;1.90;99.90;;;;;;4845150;29;19925;-82
2021/01/08 03:18:47;;;;;;;;;;;1.80;99.90;;;;;;4846690;29;19925;-83
2021/01/08 03:21:14;;;;;;;;;;;1.80;99.90;;;;;;4845372;29;19925;-82
2021/01/08 03:23:42;;;;;;;;;;;1.90;99.90;;;;;;4845569;29;19915;-83
2021/01/08 03:26:13;;;;;;;;;;;1.90;99.90;;;;;;4830082;29;19925;-83
2021/01/08 03:28:40;;;;;;;;;;;1.90;99.90;;;;;;4844837;29;19915;-83
2021/01/08 03:31:10;;;;;;;;;;;1.90;99.90;;;;;;4830206;29;19925;-83
2021/01/08 03:33:38;;;;;;;;;;;1.80;99.90;;;;;;4846138;29;19924;-83
2021/01/08 03:36:07;;;;;;;;;;;1.80;99.90;;;;;;4845627;29;19934;-82
2021/01/08 03:38:35;;;;;;;;;;;1.80;99.90;;;;;;4862217;29;19925;-82
2021/01/08 03:41:04;;;;;;;;;;;1.80;99.90;;;;;;4848779;29;20254;-81
2021/01/08 03:43:31;;;;;;;;;;;1.80;99.90;;;;;;4828748;29;19934;-82
2021/01/08 03:45:59;;;;;;;;;;;1.80;99.90;;;;;;4863094;29;19925;-82
2021/01/08 03:48:28;;;;;;;;;;;1.70;99.90;;;;;;4848284;29;19936;-83
2021/01/08 03:50:56;;;;;;;;;;;1.70;99.90;;;;;;4863517;29;19914;-82
2021/01/08 03:53:25;;;;;;;;;;;1.80;99.90;;;;;;4862768;29;19925;-82
2021/01/08 03:56:02;;;;;;;;;;;1.80;99.90;;;;;;4861096;29;19924;-82
2021/01/08 03:58:36;;;;;;;;;;;1.80;99.90;;;;;;4863120;29;19924;-82
2021/01/08 04:01:08;;;;;;;;;;;1.80;99.90;;;;;;4877682;29;19934;-83
2021/01/08 04:03:36;;;;;;;;;;;1.70;99.90;;;;;;4846555;29;19943;-82
2021/01/08 04:06:04;;;;;;;;;;;1.80;99.90;;;;;;4847604;29;19930;-83
2021/01/08 04:08:37;;;;;;;;;;;1.80;99.90;;;;;;4863700;29;19914;-83
2021/01/08 04:11:13;;;;;;;;;;;1.70;99.90;;;;;;4863430;29;19924;-82
2021/01/08 04:13:41;;;;;;;;;;;1.70;99.90;;;;;;4860493;29;19924;-81
2021/01/08 04:16:09;;;;;;;;;;;1.80;99.90;;;;;;4877329;29;19924;-83
2021/01/08 04:18:52;;;;;;;;;;;1.80;99.90;;;;;;4863361;29;19925;-82
2021/01/08 04:21:21;;;;;;;;;;;1.80;99.90;;;;;;4847805;29;19925;-82
2021/01/08 04:23:51;;;;;;;;;;;1.90;99.90;;;;;;4848527;29;19924;-83
2021/01/08 04:26:22;;;;;;;;;;;1.80;99.90;;;;;;4843878;29;19924;-83
2021/01/08 04:28:49;;;;;;;;;;;1.90;99.90;;;;;;4841779;29;19935;-83
2021/01/08 04:31:20;;;;;;;;;;;1.80;99.90;;;;;;4861900;29;19924;-82
2021/01/08 04:33:48;;;;;;;;;;;1.80;99.90;;;;;;4831805;29;19940;-84
2021/01/08 04:36:18;;;;;;;;;;;1.80;99.90;;;;;;4832456;29;19935;-84
2021/01/08 04:38:51;;;;;;;;;;;1.80;99.90;;;;;;4831778;29;19925;-84
2021/01/08 04:41:25;;;;;;;;;;;1.80;99.90;;;;;;4847510;29;19915;-83
2021/01/08 04:43:52;;;;;;;;;;;1.70;99.90;;;;;;4847956;29;19925;-83
2021/01/08 04:46:26;;;;;;;;;;;1.70;99.90;;;;;;4826830;29;19924;-81
2021/01/08 04:48:56;;;;;;;;;;;1.70;99.90;;;;;;4826510;29;19924;-80
2021/01/08 04:51:26;;;;;;;;;;;1.70;99.90;;;;;;4847361;29;19924;-83
2021/01/08 04:53:57;;;;;;;;;;;1.70;99.90;;;;;;4830137;29;19925;-83
2021/01/08 04:56:30;;;;;;;;;;;1.80;99.90;;;;;;4815759;29;19925;-82
2021/01/08 04:58:58;;;;;;;;;;;1.80;99.90;;;;;;4847200;29;19935;-81
2021/01/08 05:01:30;;;;;;;;;;;1.70;99.90;;;;;;4878190;29;19924;-82
2021/01/08 05:04:02;;;;;;;;;;;1.70;99.90;;;;;;4862369;29;19933;-82
2021/01/08 05:06:32;;;;;;;;;;;1.70;99.90;;;;;;4849709;29;19934;-83
2021/01/08 05:09:08;;;;;;;;;;;1.70;99.90;;;;;;4835290;29;19935;-82
2021/01/08 05:11:36;;;;;;;;;;;1.60;99.90;;;;;;4864945;29;19924;-83
2021/01/08 05:14:05;;;;;;;;;;;1.70;99.90;;;;;;4848129;29;19924;-83
2021/01/08 05:16:33;;;;;;;;;;;1.70;99.90;;;;;;4854969;29;19944;-81
2021/01/08 05:19:02;;;;;;;;;;;1.70;99.90;;;;;;4822504;29;19936;-81
2021/01/08 05:21:30;;;;;;;;;;;1.70;99.90;;;;;;4848240;29;19936;-81
2021/01/08 05:23:58;;;;;;;;;;;1.70;99.90;;;;;;4839927;29;19928;-82
2021/01/08 05:26:27;;;;;;;;;;;1.70;99.90;;;;;;4849663;29;20098;-82
2021/01/08 05:28:56;;;;;;;;;;;1.70;99.90;;;;;;4825005;29;19939;-81
2021/01/08 05:31:26;;;;;;;;;;;1.80;99.90;;;;;;4837815;29;19935;-82
2021/01/08 05:33:56;;;;;;;;;;;1.70;99.90;;;;;;4855852;29;19925;-82
2021/01/08 05:36:24;;;;;;;;;;;1.60;99.90;;;;;;4855124;29;19935;-82
2021/01/08 05:38:52;;;;;;;;;;;1.60;99.90;;;;;;4855506;29;19924;-82
2021/01/08 05:41:22;;;;;;;;;;;1.60;99.90;;;;;;4857900;29;19935;-80
2021/01/08 05:43:51;;;;;;;;;;;1.60;99.90;;;;;;4855660;29;19936;-81
2021/01/08 05:46:20;;;;;;;;;;;1.60;99.90;;;;;;4855056;29;19931;-81
2021/01/08 05:48:48;;;;;;;;;;;1.60;99.90;;;;;;4844721;29;19928;-81
2021/01/08 05:51:20;;;;;;;;;;;1.50;99.90;;;;;;4867454;29;19925;-81
2021/01/08 05:53:48;;;;;;;;;;;1.60;99.90;;;;;;4831028;29;20377;-81
2021/01/08 05:56:18;;;;;;;;;;;1.60;99.90;;;;;;4836947;29;19939;-82
2021/01/08 05:58:47;;;;;;;;;;;1.60;99.90;;;;;;4832700;29;19925;-82
2021/01/08 06:01:15;;;;;;;;;;;1.50;99.90;;;;;;4850821;29;19924;-82
2021/01/08 06:03:45;;;;;;;;;;;1.50;99.90;;;;;;4841827;29;19925;-82
2021/01/08 06:06:13;;;;;;;;;;;1.50;99.90;;;;;;4831190;29;19925;-81
2021/01/08 06:08:43;;;;;;;;;;;1.50;99.90;;;;;;4850981;29;19935;-82
2021/01/08 06:11:14;;;;;;;;;;;1.50;99.90;;;;;;4848985;29;19946;-82
2021/01/08 06:13:44;;;;;;;;;;;1.50;99.90;;;;;;4854778;29;19934;-82
2021/01/08 06:16:16;;;;;;;;;;;1.50;99.90;;;;;;4858048;29;19924;-82
2021/01/08 06:18:49;;;;;;;;;;;1.50;99.90;;;;;;4826003;29;19934;-82
2021/01/08 06:21:16;;;;;;;;;;;1.50;99.90;;;;;;4824025;29;19935;-82
2021/01/08 06:23:45;;;;;;;;;;;1.50;99.90;;;;;;4852556;29;19928;-83
2021/01/08 06:26:13;;;;;;;;;;;1.50;99.90;;;;;;4857070;29;19936;-81
2021/01/08 06:28:43;;;;;;;;;;;1.50;99.90;;;;;;4841623;29;19924;-81
2021/01/08 06:31:31;;;;;;;;;;;1.50;99.90;;;;;;4856893;29;19924;-82
2021/01/08 06:34:01;;;;;;;;;;;1.50;99.90;;;;;;4856436;29;20271;-82
2021/01/08 06:36:31;;;;;;;;;;;1.50;99.90;;;;;;4855852;29;19924;-81
2021/01/08 06:38:59;;;;;;;;;;;1.60;99.90;;;;;;4837984;29;19925;-82
2021/01/08 06:41:26;;;;;;;;;;;1.50;99.90;;;;;;4841498;29;19924;-81
2021/01/08 06:43:56;;;;;;;;;;;1.60;99.90;;;;;;4856817;29;19926;-81
2021/01/08 06:46:28;;;;;;;;;;;1.60;99.90;;;;;;4844246;29;19925;-81
2021/01/08 06:48:56;;;;;;;;;;;1.60;99.90;;;;;;4838717;29;19915;-82
2021/01/08 06:51:29;;;;;;;;;;;1.60;99.90;;;;;;4844922;29;19935;-82
2021/01/08 06:53:59;;;;;;;;;;;1.60;99.90;;;;;;4871256;29;19934;-82
2021/01/08 06:56:27;;;;;;;;;;;1.60;99.90;;;;;;4839601;29;19939;-81
2021/01/08 06:58:57;;;;;;;;;;;1.60;99.90;;;;;;4854284;29;19932;-82
2021/01/08 07:01:33;;;;;;;;;;;1.60;99.90;;;;;;4830674;29;20267;-82
2021/01/08 07:04:06;;;;;;;;;;;1.60;99.90;;;;;;4866260;29;19936;-81
2021/01/08 07:06:36;;;;;;;;;;;1.60;99.90;;;;;;4858466;29;20002;-81
2021/01/08 07:09:06;;;;;;;;;;;1.60;99.90;;;;;;4860241;29;19928;-83
2021/01/08 07:11:38;;;;;;;;;;;1.70;99.90;;;;;;4859175;29;19924;-82
2021/01/08 07:14:10;;;;;;;;;;;1.60;99.90;;;;;;4848000;29;19934;-80
2021/01/08 07:16:47;;;;;;;;;;;1.80;99.90;;;;;;4833110;29;19908;-81
2021/01/08 07:19:19;;;;;;;;;;;1.70;99.90;;;;;;4910539;23;19950;-81
2021/01/08 07:21:48;;;;;;;;;;;1.60;99.90;;;;;;4855989;29;19924;-83
2021/01/08 07:24:18;;;;;;;;;;;1.60;99.90;;;;;;4855581;29;19924;-82
2021/01/08 07:26:47;;;;;;;;;;;1.60;99.90;;;;;;4841979;29;19935;-81
2021/01/08 07:29:15;;;;;;;;;;;1.60;99.90;;;;;;4869714;29;19928;-82
2021/01/08 07:31:43;;;;;;;;;;;1.60;99.90;;;;;;4838856;29;19936;-81
2021/01/08 07:34:10;;;;;;;;;;;1.70;99.90;;;;;;4839358;29;19924;-82
2021/01/08 07:36:40;;;;;;;;;;;1.70;99.90;;;;;;4845352;29;19935;-81
2021/01/08 07:39:29;;;;;;;;;;;1.70;99.90;;;;;;4876547;29;19924;-83
2021/01/08 07:42:22;;;;;;;;;;;1.70;99.90;;;;;;4842761;29;19994;-80
2021/01/08 07:44:49;;;;;;;;;;;1.70;99.90;;;;;;4856920;29;20393;-82
2021/01/08 07:47:23;;;;;;;;;;;1.70;99.90;;;;;;4857763;29;19924;-81
2021/01/08 07:50:11;;;;;;;;;;;1.70;99.90;;;;;;4848854;29;19924;-81
2021/01/08 07:52:42;;;;;;;;;;;1.70;99.90;;;;;;4859014;29;19934;-81
2021/01/08 07:55:14;;;;;;;;;;;1.70;99.90;;;;;;4873068;29;19934;-81
2021/01/08 07:58:02;;;;;;;;;;;1.70;99.90;;;;;;4857783;29;19931;-81
2021/01/08 08:00:36;;;;;;;;;;;1.70;99.90;;;;;;4856132;29;20290;-81
2021/01/08 08:03:03;;;;;;;;;;;1.70;99.90;;;;;;4872072;29;19939;-81
2021/01/08 08:05:31;;;;;;;;;;;1.70;99.90;;;;;;4848852;29;19929;-82
2021/01/08 08:07:59;;;;;;;;;;;1.70;99.90;;;;;;4855506;29;19935;-81
2021/01/08 08:10:42;;;;;;;;;;;1.70;99.90;;;;;;4859543;29;19931;-83
2021/01/08 08:13:15;;;;;;;;;;;1.70;99.90;;;;;;4874293;29;19924;-83
2021/01/08 08:15:46;;;;;;;;;;;1.70;99.90;;;;;;4855151;29;19924;-82
2021/01/08 08:18:17;;;;;;;;;;;1.70;99.90;;;;;;4840749;29;19999;-82
2021/01/08 08:20:44;;;;;;;;;;;1.70;99.90;;;;;;4879330;29;20350;-81
2021/01/08 08:23:18;;;;;;;;;;;1.70;99.90;;;;;;4887759;29;19924;-82
2021/01/08 08:25:45;;;;;;;;;;;1.80;99.90;;;;;;4856243;29;20006;-81
2021/01/08 08:28:14;;;;;;;;;;;1.80;99.90;;;;;;4873404;29;19924;-81
2021/01/08 08:30:50;;;;;;;;;;;1.80;99.90;;;;;;4883119;29;19928;-81
2021/01/08 08:33:20;;;;;;;;;;;1.70;99.90;;;;;;4858489;29;19924;-81
2021/01/08 08:35:54;;;;;;;;;;;1.80;99.90;;;;;;4871076;29;20267;-80
2021/01/08 08:38:28;;;;;;;;;;;1.80;99.90;;;;;;4848154;29;19925;-81
2021/01/08 08:40:55;;;;;;;;;;;1.80;99.90;;;;;;4850799;29;20348;-81
2021/01/08 08:43:25;;;;;;;;;;;1.80;99.90;;;;;;4860571;29;19924;-80
2021/01/08 08:45:57;;;;;;;;;;;1.90;99.90;;;;;;4863285;29;19930;-81
2021/01/08 08:48:24;;;;;;;;;;;1.90;99.90;;;;;;4877229;29;19928;-80
2021/01/08 08:50:52;;;;;;;;;;;1.90;99.90;;;;;;4847559;29;19924;-79
2021/01/08 08:53:22;;;;;;;;;;;1.90;99.90;;;;;;4854550;29;19925;-80
2021/01/08 08:55:55;;;;;;;;;;;1.90;99.90;;;;;;4873184;29;19925;-80
2021/01/08 08:58:24;;;;;;;;;;;1.90;99.90;;;;;;4857344;29;20271;-81
2021/01/08 09:00:54;;;;;;;;;;;1.90;99.90;;;;;;4862169;29;19930;-80
2021/01/08 09:03:23;;;;;;;;;;;2.00;99.90;;;;;;4869239;29;19944;-82
2021/01/08 09:05:54;;;;;;;;;;;1.90;99.90;;;;;;4867688;29;19934;-82
2021/01/08 09:08:25;;;;;;;;;;;1.90;99.90;;;;;;4891045;29;19936;-83
2021/01/08 09:10:57;;;;;;;;;;;2.00;99.90;;;;;;4858036;29;19931;-81
2021/01/08 09:13:32;;;;;;;;;;;2.00;99.90;;;;;;4861540;29;19928;-82
2021/01/08 09:16:04;;;;;;;;;;;2.00;99.90;;;;;;4863163;29;19934;-82
2021/01/08 09:18:39;;;;;;;;;;;2.00;99.90;;;;;;4861385;29;19950;-81
2021/01/08 09:21:11;;;;;;;;;;;2.10;99.90;;;;;;4892035;29;19923;-82
2021/01/08 09:23:41;;;;;;;;;;;2.00;99.90;;;;;;4876761;29;19947;-82
2021/01/08 09:26:09;;;;;;;;;;;2.10;99.90;;;;;;4845577;29;19944;-81
2021/01/08 09:28:43;;;;;;;;;;;2.10;99.90;;;;;;4860440;29;19935;-84
2021/01/08 09:31:37;;;;;;;;;;;2.20;99.90;;;;;;4865441;29;20374;-81
2021/01/08 09:34:10;;;;;;;;;;;2.20;99.90;;;;;;4879702;29;19934;-83
2021/01/08 09:36:37;;;;;;;;;;;2.20;99.90;;;;;;4871032;29;19931;-84
2021/01/08 09:39:11;;;;;;;;;;;2.20;99.90;;;;;;4846560;29;19924;-83
2021/01/08 09:41:43;;;;;;;;;;;2.30;99.90;;;;;;4877127;29;19935;-83
2021/01/08 09:44:11;;;;;;;;;;;2.40;99.90;;;;;;4863949;29;19925;-83
2021/01/08 09:46:51;;;;;;;;;;;2.40;99.90;;;;;;4852277;29;19924;-83
2021/01/08 09:49:21;;;;;;;;;;;2.30;99.90;;;;;;4858622;29;19923;-83
2021/01/08 09:51:59;;;;;;;;;;;2.20;99.90;;;;;;4865257;29;19924;-84
2021/01/08 09:54:45;;;;;;;;;;;2.20;99.90;;;;;;4843405;29;19924;-82
2021/01/08 09:57:24;;;;;;;;;;;2.20;99.90;;;;;;4845314;29;19934;-82
2021/01/08 10:00:06;;;;;;;;;;;2.30;99.90;;;;;;4857979;29;19924;-83
2021/01/08 10:02:53;;;;;;;;;;;2.30;99.90;;;;;;5004871;23;19909;-84
2021/01/08 10:05:38;;;;;;;;;;;2.30;99.90;;;;;;4850431;29;19934;-84
2021/01/08 10:08:12;;;;;;;;;;;2.30;99.90;;;;;;4846171;29;20286;-82
2021/01/08 10:10:49;;;;;;;;;;;2.30;99.90;;;;;;4834378;29;19926;-82
2021/01/08 10:13:21;;;;;;;;;;;2.20;99.90;;;;;;4864385;29;19926;-83
2021/01/08 10:15:50;;;;;;;;;;;2.30;99.90;;;;;;4856945;29;19924;-83
2021/01/08 10:18:25;;;;;;;;;;;2.30;99.90;;;;;;4852834;29;19925;-82
2021/01/08 10:20:55;;;;;;;;;;;2.30;99.90;;;;;;4831890;29;19939;-83
2021/01/08 10:23:25;;;;;;;;;;;2.30;99.90;;;;;;4816080;29;19925;-82
2021/01/08 10:25:53;;;;;;;;;;;2.30;99.90;;;;;;4846342;29;19924;-82
2021/01/08 10:28:25;;;;;;;;;;;2.30;99.90;;;;;;4860587;29;20317;-81
2021/01/08 10:30:53;;;;;;;;;;;2.30;99.90;;;;;;4876581;29;19923;-81
2021/01/08 10:33:25;;;;;;;;;;;2.30;99.90;;;;;;4853775;29;19935;-83
2021/01/08 10:35:58;;;;;;;;;;;2.30;99.90;;;;;;4845245;29;19924;-82
2021/01/08 10:41:20;;;;;;;;;;;2.30;99.90;;;;;;4849167;29;19924;-82
2021/01/08 10:43:47;;;;;;;;;;;2.30;99.90;;;;;;4849633;29;19924;-83
2021/01/08 10:46:15;;;;;;;;;;;2.30;99.90;;;;;;4829565;29;19930;-82
2021/01/08 10:49:09;;;;;;;;;;;2.30;99.90;;;;;;4860302;29;19951;-82
2021/01/08 10:54:29;;;;;;;;;;;2.40;99.90;;;;;;4826467;29;19924;-81
2021/01/08 10:56:59;;;;;;;;;;;2.30;99.90;;;;;;4855873;29;19924;-81
2021/01/08 10:59:30;;;;;;;;;;;2.30;99.90;;;;;;4841789;29;19925;-83
2021/01/08 11:01:58;;;;;;;;;;;2.40;99.90;;;;;;4826991;29;19928;-81
2021/01/08 11:04:30;;;;;;;;;;;2.30;99.90;;;;;;4843155;29;19924;-83
2021/01/08 11:07:00;;;;;;;;;;;2.40;99.90;;;;;;4862072;29;19943;-84
2021/01/08 11:09:29;;;;;;;;;;;2.40;99.90;;;;;;4858687;29;19912;-82
2021/01/08 11:11:56;;;;;;;;;;;2.50;99.90;;;;;;4844810;29;19943;-84
2021/01/08 11:14:33;;;;;;;;;;;2.50;99.90;;;;;;4857531;29;19924;-82
2021/01/08 11:17:00;;;;;;;;;;;2.50;99.90;;;;;;4854510;29;19932;-84
2021/01/08 11:19:32;;;;;;;;;;;2.60;99.90;;;;;;4857285;29;19924;-82
2021/01/08 11:22:03;;;;;;;;;;;2.60;99.90;;;;;;4849889;29;19924;-82
2021/01/08 11:24:30;;;;;;;;;;;2.70;99.90;;;;;;4840988;29;19929;-82
2021/01/08 11:26:59;;;;;;;;;;;2.70;99.90;;;;;;4825457;29;19940;-81
2021/01/08 11:29:27;;;;;;;;;;;2.70;99.90;;;;;;4840213;29;19935;-83
2021/01/08 11:35:08;;;;;;;;;;;2.80;99.90;;;;;;4801249;30;19925;-81
2021/01/08 11:37:39;;;;;;;;;;;2.70;99.90;;;;;;4830637;29;19925;-81
2021/01/08 11:40:08;;;;;;;;;;;2.70;99.90;;;;;;4817456;29;20368;-82
2021/01/08 11:42:37;;;;;;;;;;;2.70;99.90;;;;;;4783314;30;20360;-82
2021/01/08 11:45:05;;;;;;;;;;;2.70;99.90;;;;;;4808440;29;19936;-83
2021/01/08 11:47:35;;;;;;;;;;;2.70;99.90;;;;;;4819077;29;19925;-82
2021/01/08 11:50:05;;;;;;;;;;;2.70;99.90;;;;;;4803859;30;19933;-82
2021/01/08 11:52:34;;;;;;;;;;;2.80;99.90;;;;;;4804818;30;19936;-84
2021/01/08 11:55:08;;;;;;;;;;;2.80;99.90;;;;;;4803571;30;19936;-80
2021/01/08 11:57:38;;;;;;;;;;;2.80;99.90;;;;;;4807189;29;20277;-81
2021/01/08 12:00:10;;;;;;;;;;;2.90;99.90;;;;;;4832072;29;19929;-82
2021/01/08 12:02:43;;;;;;;;;;;2.90;99.90;;;;;;4794682;30;19936;-81
2021/01/08 12:05:13;;;;;;;;;;;3.00;99.90;;;;;;4829440;29;19926;-82
2021/01/08 12:07:40;;;;;;;;;;;3.00;99.90;;;;;;4817598;29;19925;-85
2021/01/08 12:10:11;;;;;;;;;;;3.00;99.90;;;;;;4803266;29;19925;-82
2021/01/08 12:12:40;;;;;;;;;;;3.10;99.90;;;;;;4798274;30;19933;-82
2021/01/08 12:15:08;;;;;;;;;;;3.20;99.90;;;;;;4789166;29;19916;-82
2021/01/08 12:17:57;;;;;;;;;;;;;;;;;;;;;
2021/01/08 12:20:32;;;;;;;;;;;3.40;99.90;;;;;;4841326;29;19924;-83
2021/01/08 12:23:02;;;;;;;;;;;3.40;99.90;;;;;;4827620;29;19932;-81
2021/01/08 12:25:30;;;;;;;;;;;3.30;99.90;;;;;;4827307;29;19925;-83
2021/01/08 12:27:58;;;;;;;;;;;3.40;99.90;;;;;;4816302;29;19958;-84
2021/01/08 12:30:28;;;;;;;;;;;3.40;99.90;;;;;;4847420;29;19956;-81
2021/01/08 12:35:42;;;;;;;;;;;3.40;99.90;;;;;;4846984;29;19935;-81
2021/01/08 12:38:13;;;;;;;;;;;3.40;99.90;;;;;;4990461;24;19940;-80
2021/01/08 12:40:43;;;;;;;;;;;3.50;99.90;;;;;;4860196;29;19934;-86
2021/01/08 12:43:10;;;;;;;;;;;3.40;99.90;;;;;;4852438;29;19925;-83
2021/01/08 12:45:46;;;;;;;;;;;3.40;99.90;;;;;;4844939;29;19912;-80
2021/01/08 12:48:14;;;;;;;;;;;3.40;99.90;;;;;;4828596;29;20282;-82
2021/01/08 12:50:42;;;;;;;;;;;3.40;99.90;;;;;;4856570;29;19935;-80
2021/01/08 12:53:11;;;;;;;;;;;3.40;99.90;;;;;;4845529;29;19925;-82
2021/01/08 12:55:39;;;;;;;;;;;3.40;99.90;;;;;;4853355;29;19931;-83
2021/01/08 12:58:17;;;;;;;;;;;3.40;99.90;;;;;;4857632;29;19936;-88
2021/01/08 13:00:50;;;;;;;;;;;3.40;99.90;;;;;;4872580;29;19935;-81
2021/01/08 13:03:18;;;;;;;;;;;3.30;99.90;;;;;;4829460;29;20387;-81
2021/01/08 13:06:12;;;;;;;;;;;3.30;99.90;;;;;;4823856;29;19925;-83
2021/01/08 13:08:41;;;;;;;;;;;3.30;99.90;;;;;;4841867;29;19924;-82
2021/01/08 13:11:08;;;;;;;;;;;3.40;99.90;;;;;;4837064;29;19939;-82
2021/01/08 13:13:38;;;;;;;;;;;3.30;99.90;;;;;;4841743;29;19939;-82
2021/01/08 13:16:05;;;;;;;;;;;3.40;99.90;;;;;;4845091;29;19996;-82
2021/01/08 13:18:33;;;;;;;;;;;3.40;99.90;;;;;;4838641;29;19928;-81
2021/01/08 13:21:07;;;;;;;;;;;3.30;99.90;;;;;;4849613;29;19924;-83
2021/01/08 13:23:34;;;;;;;;;;;3.30;99.90;;;;;;5007968;24;19934;-86
2021/01/08 13:26:09;;;;;;;;;;;3.30;99.90;;;;;;5081039;23;20260;-82
2021/01/08 13:28:37;;;;;;;;;;;3.30;99.90;;;;;;4856854;29;19947;-83
2021/01/08 13:31:04;;;;;;;;;;;3.30;99.90;;;;;;4838383;29;19935;-81
2021/01/08 13:33:31;;;;;;;;;;;3.20;99.90;;;;;;4833266;29;19924;-81
2021/01/08 13:35:59;;;;;;;;;;;3.40;99.90;;;;;;4873079;29;19925;-82
2021/01/08 13:38:28;;;;;;;;;;;3.50;99.90;;;;;;4856883;29;19925;-81
2021/01/08 13:40:55;;;;;;;;;;;3.40;99.90;;;;;;4877956;29;19924;-84
2021/01/08 13:43:32;;;;;;;;;;;3.50;99.90;;;;;;4858948;29;19924;-79
2021/01/08 13:46:01;;;;;;;;;;;3.50;99.90;;;;;;4821985;29;19924;-80
2021/01/08 13:48:31;;;;;;;;;;;3.60;99.90;;;;;;4837097;29;19935;-79
2021/01/08 13:50:58;;;;;;;;;;;3.60;99.90;;;;;;4837836;29;19931;-81
2021/01/08 13:53:28;;;;;;;;;;;3.60;99.90;;;;;;4833209;29;19928;-79
2021/01/08 13:55:56;;;;;;;;;;;3.60;99.90;;;;;;4826294;29;19949;-83
2021/01/08 13:58:26;;;;;;;;;;;3.70;99.90;;;;;;4842028;29;19924;-81
2021/01/08 14:00:55;;;;;;;;;;;3.70;99.90;;;;;;4845234;29;19912;-82
2021/01/08 14:03:24;;;;;;;;;;;3.70;99.90;;;;;;4860459;29;19935;-84
2021/01/08 14:05:52;;;;;;;;;;;3.60;99.90;;;;;;4840106;29;19924;-82
2021/01/08 14:08:22;;;;;;;;;;;3.40;99.90;;;;;;4847238;29;19919;-86
2021/01/08 14:10:55;;;;;;;;;;;3.30;99.90;;;;;;4859526;29;19928;-82
2021/01/08 14:13:33;;;;;;;;;;;3.40;99.90;;;;;;4825277;29;19936;-86
2021/01/08 14:16:01;;;;;;;;;;;3.40;99.90;;;;;;4822046;29;19935;-82
2021/01/08 14:18:39;;;;;;;;;;;3.50;99.90;;;;;;4832234;29;19943;-79
2021/01/08 14:21:08;;;;;;;;;;;3.60;99.90;;;;;;4848458;29;19947;-82
2021/01/08 14:23:35;;;;;;;;;;;3.50;99.90;;;;;;4840573;29;19925;-82
2021/01/08 14:26:09;;;;;;;;;;;3.50;99.90;;;;;;4828897;29;19928;-86
2021/01/08 14:28:36;;;;;;;;;;;3.40;99.90;;;;;;4847735;29;19928;-85
2021/01/08 14:31:08;;;;;;;;;;;3.30;99.90;;;;;;4857276;29;19925;-84
2021/01/08 14:33:36;;;;;;;;;;;3.20;99.90;;;;;;4822037;29;19928;-86
2021/01/08 14:36:05;;;;;;;;;;;3.20;99.90;;;;;;4864933;29;19939;-85
2021/01/08 14:38:32;;;;;;;;;;;3.20;99.90;;;;;;4832127;29;19924;-85
2021/01/08 14:40:59;;;;;;;;;;;3.20;99.90;;;;;;4832042;29;19929;-87
2021/01/08 14:43:27;;;;;;;;;;;3.10;99.90;;;;;;4818322;29;19931;-86
2021/01/08 14:45:54;;;;;;;;;;;3.00;99.90;;;;;;4841058;29;19936;-88
2021/01/08 14:48:22;;;;;;;;;;;3.00;99.90;;;;;;4815976;29;19925;-85
2021/01/08 14:50:52;;;;;;;;;;;3.00;99.90;;;;;;4828819;29;19951;-85
2021/01/08 14:53:20;;;;;;;;;;;3.00;99.90;;;;;;4845398;29;19924;-83
2021/01/08 14:55:47;;;;;;;;;;;3.00;99.90;;;;;;4845747;29;19931;-86
2021/01/08 14:58:15;;;;;;;;;;;3.00;99.90;;;;;;4835828;29;19924;-85
2021/01/08 15:00:42;;;;;;;;;;;3.00;99.90;;;;;;4830130;29;19924;-85
2021/01/08 15:03:09;;;;;;;;;;;3.00;99.90;;;;;;4832744;29;19951;-85
2021/01/08 15:05:46;;;;;;;;;;;3.00;99.90;;;;;;4843268;29;19940;-88
2021/01/08 15:08:15;;;;;;;;;;;3.00;99.90;;;;;;4845188;29;19924;-80
2021/01/08 15:10:43;;;;;;;;;;;3.00;99.90;;;;;;4845560;29;20515;-82
2021/01/08 15:13:13;;;;;;;;;;;3.00;99.90;;;;;;4852181;29;19925;-84